Airfield :
LOGIN :

Register | Disclaimer

   EN    FR    IT 

 










Legend :    VFR   Marginal VFR   IFR   Intensive IFR   Very Intensive IFR
Visi :
Ceiling :
>= 8 km
>= 3000ft
5 to 8 km
1000 to 3000 ft
1500m to 5 km
500 to 1000 ft
800 to 1500m
200 to 500 ft
< 800m
< 200 ft
Symbols :   Thunderstorms  Fog  Heavy snow  Heavy precipitations  Wind > 20 kt
SIGMETs :     Misc.  Thunderstorms  Icing  Turbulence  Mountain Waves  Volcanic Ashes






- Airport Elevation : 288 ft
- IATA code : BZZ


EGVN - RAF Brize Norton

CURRENT METAR :
  • 301450Z 09009KT CAVOK 25/05 Q1021 NOSIG RMK BLU BLU

EXPIRED METARs :
  • 301425Z 11009KT CAVOK 24/06 Q1021 NOSIG RMK BLU BLU
  • 301350Z 09007KT CAVOK 24/06 Q1021 NOSIG RMK BLU BLU
  • 301325Z 09008KT CAVOK 24/08 Q1022 NOSIG RMK BLU BLU
  • 301250Z 11008KT CAVOK 22/09 Q1022 NOSIG
  • 301222Z 11009KT CAVOK 23/08 Q1022 NOSIG RMK BLU BLU

TAF TAF EGVN
Valid from the 30 at 15:00 until the 31 at 15:00 UTC


301329Z 3015/3115 07008KT CAVOK



MET'MAP, your aeronautical weather chart ! - Copyright ORBIFLY December 2007 - Disclaimer

ORBIFLY MET'MAP TEAM :

Programming & Development : Alexandra Zaïnal
Concept & original design : Baudouin d'Aumeries
Assistance for programming : Marc-Olivier Méhu
Technical & hardware support : Manuel Goepfert

Contact : metmap@orbifly.com




SOURCES & CREDITS :

   NOAA